Airfield :
LOGIN :

Register | Disclaimer

   EN    FR    IT 

 










Legend :    VFR   Marginal VFR   IFR   Intensive IFR   Very Intensive IFR
Visi :
Ceiling :
>= 8 km
>= 3000ft
5 to 8 km
1000 to 3000 ft
1500m to 5 km
500 to 1000 ft
800 to 1500m
200 to 500 ft
< 800m
< 200 ft
Symbols :   Thunderstorms  Fog  Heavy snow  Heavy precipitations  Wind > 20 kt
SIGMETs :     Misc.  Thunderstorms  Icing  Turbulence  Mountain Waves  Volcanic Ashes






- Airport Elevation : 14 ft
- IATA code : BRE


EDDW - Bremen Neuenland

CURRENT METAR :
  • 291150Z AUTO 28008KT 230V300 9999 SCT026 14/08 Q1002 NOSIG

EXPIRED METARs :
  • 291120Z AUTO 26008KT 9999 SCT022 SCT032 13/08 Q1002 NOSIG
  • 291050Z AUTO 25008KT 9999 BKN019 13/08 Q1002 NOSIG
  • 291020Z AUTO 24007KT 9999 BKN015 13/09 Q1002 NOSIG
  • 290950Z AUTO 27006KT 210V310 9999 SCT012 12/09 Q1002 NOSIG
  • 290920Z AUTO 23005KT 180V290 9999 SCT008 12/09 Q1002 NOSIG

TAF TAF EDDW
Valid from the 29 at 12:00 until the 30 at 12:00 UTC


291100Z 2912/3012 27007KT 9999 SCT030
BECMG 2917/2919 VRB03KT
PROB30
TEMPO 2918/2922 4000 SHRA BKN014TCU
PROB30
TEMPO 3000/3006 1200 BCFG
BECMG 3007/3009 21008KT



MET'MAP, your aeronautical weather chart ! - Copyright ORBIFLY December 2007 - Disclaimer

ORBIFLY MET'MAP TEAM :

Programming & Development : Alexandra Zaïnal
Original concept : Baudouin d'Aumeries
Technical & hardware support : Manuel Goepfert
Assistance : Marc-Olivier Méhu




SOURCES & CREDITS :

   NOAA